createdAt,value
2022-11-26T00:00:23.029Z,96344.8
2022-11-26T00:01:24.971Z,96348.4
2022-11-26T00:02:28.153Z,96347.5
2022-11-26T00:03:31.507Z,96343.8
2022-11-26T00:04:34.093Z,96345.2
2022-11-26T00:05:36.606Z,96346.3
2022-11-26T00:06:38.520Z,96348.1
2022-11-26T00:07:40.750Z,96346.8
2022-11-26T00:08:43.125Z,96345.6
2022-11-26T00:09:45.599Z,96348.3
2022-11-26T00:10:48.083Z,96344
2022-11-26T00:11:50.557Z,96345.2
2022-11-26T00:12:52.841Z,96343.7
2022-11-26T00:13:55.333Z,96342.8
2022-11-26T00:14:57.885Z,96343.3
2022-11-26T00:16:00.380Z,96339.9
2022-11-26T00:17:03.120Z,96339.6
2022-11-26T00:18:05.778Z,96336.5
2022-11-26T00:19:07.965Z,96337.1
2022-11-26T00:20:09.609Z,96338.8
2022-11-26T00:21:12.099Z,96335.6
2022-11-26T00:22:14.017Z,96341.7
2022-11-26T00:23:16.500Z,96341.9
2022-11-26T00:24:18.982Z,96339.1
2022-11-26T00:25:21.460Z,96337.3
2022-11-26T00:26:23.931Z,96344.8
2022-11-26T00:27:26.143Z,96343.2
2022-11-26T00:28:28.659Z,96342.5
2022-11-26T00:29:31.160Z,96345.4
2022-11-26T00:30:33.388Z,96346.1
2022-11-26T00:31:36.162Z,96345.3
2022-11-26T00:32:38.797Z,96348
2022-11-26T00:33:41.340Z,96350
2022-11-26T00:34:43.541Z,96348
2022-11-26T00:35:45.732Z,96354.8
2022-11-26T00:36:48.206Z,96354.9
2022-11-26T00:37:49.865Z,96358
2022-11-26T00:38:52.054Z,96359.5
2022-11-26T00:39:54.257Z,96356.9
2022-11-26T00:40:56.729Z,96355.7
2022-11-26T00:41:59.207Z,96358.8
2022-11-26T00:43:03.405Z,96361.2
2022-11-26T00:44:05.974Z,96363
2022-11-26T00:45:08.220Z,96363
2022-11-26T00:46:10.789Z,96366.8
2022-11-26T00:47:13.377Z,96366.8
2022-11-26T00:48:15.571Z,96370.9
2022-11-26T00:49:18.086Z,96371
2022-11-26T00:50:20.285Z,96373.3
2022-11-26T00:51:22.498Z,96377.1
2022-11-26T00:52:24.977Z,96375.8
2022-11-26T00:53:27.468Z,96374.7
2022-11-26T00:54:29.938Z,96378.5
2022-11-26T00:55:32.470Z,96380.6
2022-11-26T00:57:39.923Z,96380.8
2022-11-26T00:58:42.426Z,96379.8
2022-11-26T00:59:44.950Z,96385.1
2022-11-26T01:00:47.658Z,96382
2022-11-26T01:01:50.541Z,96384.7
2022-11-26T01:02:53.152Z,96383.7
2022-11-26T01:03:55.643Z,96385.5
2022-11-26T01:04:57.888Z,96386.3
2022-11-26T01:06:00.363Z,96382.8
2022-11-26T01:07:02.844Z,96384.6
2022-11-26T01:08:04.760Z,96390.2
2022-11-26T01:09:07.248Z,96386.7
2022-11-26T01:10:09.425Z,96389.4
2022-11-26T01:11:11.628Z,96393.5
2022-11-26T01:12:13.831Z,96392.2
2022-11-26T01:13:16.362Z,96395.9
2022-11-26T01:14:18.843Z,96395.8
2022-11-26T01:15:21.380Z,96398.6
2022-11-26T01:16:24.167Z,96397.9
2022-11-26T01:17:26.229Z,96397.9
2022-11-26T01:18:28.761Z,96398.3
2022-11-26T01:19:30.967Z,96401.6
2022-11-26T01:20:33.472Z,96397.4
2022-11-26T01:21:35.676Z,96398.2
2022-11-26T01:22:37.874Z,96398.4
2022-11-26T01:23:40.361Z,96398.4
2022-11-26T01:24:42.334Z,96400.3
2022-11-26T01:25:44.821Z,96401.9
2022-11-26T01:26:46.735Z,96398.9
2022-11-26T01:27:48.929Z,96398.5
2022-11-26T01:28:50.855Z,96399.1
2022-11-26T01:29:53.338Z,96403.4
2022-11-26T01:30:55.875Z,96402.7
2022-11-26T01:31:58.699Z,96404
2022-11-26T01:33:01.290Z,96404.2
2022-11-26T01:34:04.023Z,96404.3
2022-11-26T01:35:05.669Z,96411.8
2022-11-26T01:36:08.172Z,96407.1
2022-11-26T01:37:10.370Z,96409.6
2022-11-26T01:38:12.555Z,96414.1
2022-11-26T01:39:14.770Z,96412.3
2022-11-26T01:40:16.976Z,96408.8
2022-11-26T01:41:19.470Z,96408.7
2022-11-26T01:42:21.958Z,96411.6
2022-11-26T01:43:24.432Z,96410.9
2022-11-26T01:44:26.677Z,96410.9
2022-11-26T01:45:29.142Z,96416.1
2022-11-26T01:46:31.500Z,96416.2
2022-11-26T01:47:33.990Z,96417.7
2022-11-26T01:48:36.476Z,96420.2
2022-11-26T01:49:38.975Z,96419.6
2022-11-26T01:50:41.466Z,96418.1
2022-11-26T01:51:43.989Z,96424
2022-11-26T01:52:46.179Z,96423.4
2022-11-26T01:53:48.369Z,96419.8
2022-11-26T01:54:50.562Z,96425.3
2022-11-26T01:55:53.048Z,96423.5
2022-11-26T01:56:54.958Z,96423.4
2022-11-26T01:57:57.167Z,96423.6
2022-11-26T01:58:59.361Z,96427.1
2022-11-26T02:00:01.916Z,96422.6
2022-11-26T02:01:04.739Z,96426.5
2022-11-26T02:02:07.699Z,96427.4
2022-11-26T02:03:09.967Z,96430.8
2022-11-26T02:04:12.464Z,96431.2
2022-11-26T02:05:14.972Z,96426.1
2022-11-26T02:06:16.898Z,96431.7
2022-11-26T02:07:19.490Z,96434.5
2022-11-26T02:08:21.813Z,96433.3
2022-11-26T02:09:24.286Z,96434.8
2022-11-26T02:10:26.792Z,96434.8
2022-11-26T02:11:29.260Z,96432.9
2022-11-26T02:12:31.188Z,96433
2022-11-26T02:13:33.389Z,96434.1
2022-11-26T02:14:36.273Z,96432.1
2022-11-26T02:15:39.287Z,96434.8
2022-11-26T02:16:41.653Z,96432.4
2022-11-26T02:17:44.242Z,96434.7
2022-11-26T02:18:46.467Z,96433.7
2022-11-26T02:19:48.939Z,96434
2022-11-26T02:20:51.166Z,96433.6
2022-11-26T02:21:53.629Z,96434.5
2022-11-26T02:22:55.862Z,96436.6
2022-11-26T02:23:58.335Z,96434
2022-11-26T02:25:00.830Z,96434.8
2022-11-26T02:26:03.309Z,96435.1
2022-11-26T02:27:05.512Z,96436.6
2022-11-26T02:28:07.706Z,96433.3
2022-11-26T02:29:09.626Z,96435.5
2022-11-26T02:30:11.835Z,96436
2022-11-26T02:31:14.619Z,96434.2
2022-11-26T02:32:16.863Z,96438.4
2022-11-26T02:33:19.403Z,96439.1
2022-11-26T02:34:21.896Z,96434.6
2022-11-26T02:35:24.077Z,96432.2
2022-11-26T02:36:26.319Z,96439.2
2022-11-26T02:37:28.511Z,96438.5
2022-11-26T02:38:30.743Z,96437.1
2022-11-26T02:39:33.228Z,96435.3
2022-11-26T02:40:35.734Z,96434.1
2022-11-26T02:41:38.217Z,96434.2
2022-11-26T02:42:40.416Z,96434
2022-11-26T02:43:42.885Z,96433.3
2022-11-26T02:44:45.431Z,96436.2
2022-11-26T02:45:48.276Z,96435.3
2022-11-26T02:46:50.816Z,96437.9
2022-11-26T02:47:53.298Z,96438
2022-11-26T02:48:55.619Z,96440.5
2022-11-26T02:49:58.106Z,96436.7
2022-11-26T02:51:00.610Z,96442
2022-11-26T02:52:03.121Z,96439.4
2022-11-26T02:53:05.341Z,96444.7
2022-11-26T02:54:07.584Z,96446
2022-11-26T02:55:09.797Z,96440.5
2022-11-26T02:56:12.010Z,96446.9
2022-11-26T02:57:14.187Z,96445.1
2022-11-26T02:58:16.671Z,96440.5
2022-11-26T02:59:19.151Z,96448.7
2022-11-26T03:00:21.629Z,96447.4
2022-11-26T03:01:24.325Z,96447.9
2022-11-26T03:02:26.936Z,96449.3
2022-11-26T03:03:29.361Z,96452.9
2022-11-26T03:04:31.700Z,96455.4
2022-11-26T03:05:34.201Z,96453.5
2022-11-26T03:06:36.699Z,96455
2022-11-26T03:07:39.007Z,96454.3
2022-11-26T03:08:41.581Z,96456.9
2022-11-26T03:09:44.085Z,96458.5
2022-11-26T03:10:46.282Z,96455.9
2022-11-26T03:11:48.793Z,96454.2
2022-11-26T03:12:51.451Z,96458.1
2022-11-26T03:13:54.352Z,96455
2022-11-26T03:14:56.830Z,96459.4
2022-11-26T03:15:59.336Z,96453.9
2022-11-26T03:17:01.368Z,96461.2
2022-11-26T03:18:03.846Z,96464.7
2022-11-26T03:19:05.778Z,96463.6
2022-11-26T03:20:07.724Z,96465.6
2022-11-26T03:21:09.945Z,96462.4
2022-11-26T03:22:12.433Z,96464.3
2022-11-26T03:23:14.928Z,96459.8
2022-11-26T03:24:17.167Z,96461.3
2022-11-26T03:25:19.666Z,96464
2022-11-26T03:26:22.135Z,96463.2
2022-11-26T03:27:24.606Z,96459.6
2022-11-26T03:28:27.097Z,96458.6
2022-11-26T03:29:29.573Z,96460.1
2022-11-26T03:30:32.055Z,96454.4
2022-11-26T03:31:34.159Z,96457.3
2022-11-26T03:32:36.806Z,96457.8
2022-11-26T03:33:39.030Z,96456.7
2022-11-26T03:34:41.961Z,96457.8
2022-11-26T03:35:44.503Z,96456.5
2022-11-26T03:36:46.202Z,96457.5
2022-11-26T03:37:48.406Z,96456.6
2022-11-26T03:38:50.996Z,96458.7
2022-11-26T03:39:53.472Z,96458.1
2022-11-26T03:40:55.970Z,96456.9
2022-11-26T03:41:58.239Z,96456.5
2022-11-26T03:43:00.711Z,96461.4
2022-11-26T03:44:02.913Z,96460.7
2022-11-26T03:45:05.395Z,96465
2022-11-26T03:46:08.091Z,96466
2022-11-26T03:47:10.092Z,96463.5
2022-11-26T03:48:12.289Z,96462.2
2022-11-26T03:49:14.483Z,96467.7
2022-11-26T03:50:16.703Z,96465.8
2022-11-26T03:51:18.939Z,96466.6
2022-11-26T03:52:21.455Z,96472.7
2022-11-26T03:53:23.643Z,96474
2022-11-26T03:54:26.144Z,96478
2022-11-26T03:55:28.612Z,96484.5
2022-11-26T03:56:31.129Z,96488.9
2022-11-26T03:57:33.612Z,96487.2
2022-11-26T03:58:36.097Z,96484
2022-11-26T03:59:38.567Z,96492.3
2022-11-26T04:00:40.774Z,96487.7
2022-11-26T04:01:43.602Z,96485.5
2022-11-26T04:02:46.114Z,96487.7
2022-11-26T04:03:48.659Z,96488.8
2022-11-26T04:04:51.145Z,96490.7
2022-11-26T04:05:53.345Z,96491.8
2022-11-26T04:06:55.326Z,96499.8
2022-11-26T04:07:57.773Z,96504.3
2022-11-26T04:09:00.252Z,96501.1
2022-11-26T04:10:02.510Z,96494.1
2022-11-26T04:11:04.994Z,96493.6
2022-11-26T04:12:07.486Z,96497.4
2022-11-26T04:13:09.674Z,96507.8
2022-11-26T04:14:12.145Z,96509.3
2022-11-26T04:15:14.085Z,96507.1
2022-11-26T04:16:16.840Z,96512
2022-11-26T04:17:19.373Z,96509.3
2022-11-26T04:18:21.849Z,96511.5
2022-11-26T04:19:24.340Z,96514.8
2022-11-26T04:20:26.506Z,96513.7
2022-11-26T04:21:28.426Z,96515.8
2022-11-26T04:22:30.938Z,96516
2022-11-26T04:23:33.162Z,96513.9
2022-11-26T04:24:35.516Z,96516.1
2022-11-26T04:25:38.678Z,96515.1
2022-11-26T04:26:41.147Z,96517.7
2022-11-26T04:27:43.648Z,96518.8
2022-11-26T04:28:45.845Z,96518.6
2022-11-26T04:29:48.024Z,96522.5
2022-11-26T04:30:50.231Z,96524.1
2022-11-26T04:31:53.024Z,96526.8
2022-11-26T04:32:55.422Z,96525.4
2022-11-26T04:33:57.887Z,96531.9
2022-11-26T04:35:00.403Z,96532.5
2022-11-26T04:36:02.883Z,96531.2
2022-11-26T04:37:05.374Z,96532.9
2022-11-26T04:38:07.954Z,96534.1
2022-11-26T04:39:10.466Z,96535.2
2022-11-26T04:40:12.128Z,96538.6
2022-11-26T04:41:14.356Z,96539.1
2022-11-26T04:42:16.828Z,96538.4
2022-11-26T04:43:19.355Z,96540.9
2022-11-26T04:44:21.553Z,96543.4
2022-11-26T04:45:24.066Z,96543
2022-11-26T04:46:25.707Z,96544.7
2022-11-26T04:47:27.611Z,96545.3
2022-11-26T04:48:29.884Z,96548.5
2022-11-26T04:49:31.820Z,96550.7
2022-11-26T04:50:34.293Z,96551.4
2022-11-26T04:51:36.477Z,96551.5
2022-11-26T04:52:38.970Z,96554
2022-11-26T04:53:41.498Z,96552.2
2022-11-26T04:54:44.001Z,96555.4
2022-11-26T04:55:46.494Z,96554.6
2022-11-26T04:56:48.992Z,96554.6
2022-11-26T04:57:51.470Z,96556.2
2022-11-26T04:58:53.960Z,96559.7
2022-11-26T04:59:56.448Z,96561.4
2022-11-26T05:00:59.237Z,96563.8
2022-11-26T05:02:01.553Z,96569.7
2022-11-26T05:03:03.834Z,96569
2022-11-26T05:04:06.459Z,96569
2022-11-26T05:05:08.106Z,96570.2
2022-11-26T05:06:10.610Z,96573.5
2022-11-26T05:07:13.239Z,96571.2
2022-11-26T05:08:15.781Z,96573.6
2022-11-26T05:09:18.040Z,96570.7
2022-11-26T05:10:20.539Z,96576.4
2022-11-26T05:11:22.716Z,96574.2
2022-11-26T05:12:25.300Z,96572.5
2022-11-26T05:13:27.782Z,96573.2
2022-11-26T05:14:30.308Z,96577.7
2022-11-26T05:15:32.781Z,96573.8
2022-11-26T05:16:35.374Z,96577.4
2022-11-26T05:17:38.098Z,96581.3
2022-11-26T05:18:40.305Z,96580.3
2022-11-26T05:19:42.498Z,96583.5
2022-11-26T05:20:44.980Z,96579.8
2022-11-26T05:21:47.181Z,96583.5
2022-11-26T05:22:49.386Z,96586.3
2022-11-26T05:23:51.874Z,96585.7
2022-11-26T05:24:54.118Z,96587.5
2022-11-26T05:25:56.633Z,96588.9
2022-11-26T05:26:59.108Z,96588.7
2022-11-26T05:28:01.599Z,96587.1
2022-11-26T05:29:03.579Z,96588.7
2022-11-26T05:30:05.850Z,96592.9
2022-11-26T05:31:08.040Z,96589
2022-11-26T05:32:10.827Z,96593.4
2022-11-26T05:33:13.227Z,96593.4
2022-11-26T05:34:15.431Z,96594.3
2022-11-26T05:35:17.628Z,96594.6
2022-11-26T05:36:20.107Z,96596.5
2022-11-26T05:37:22.584Z,96602.1
2022-11-26T05:38:24.214Z,96602.7
2022-11-26T05:39:26.414Z,96606.4
2022-11-26T05:40:28.941Z,96603.5
2022-11-26T05:41:30.868Z,96605.1
2022-11-26T05:42:33.347Z,96604.7
2022-11-26T05:43:35.837Z,96612.3
2022-11-26T05:44:40.022Z,96609.2
2022-11-26T05:45:43.451Z,96606.1
2022-11-26T05:46:46.065Z,96611.3
2022-11-26T05:47:48.310Z,96613.4
2022-11-26T05:48:50.529Z,96613.4
2022-11-26T05:49:52.733Z,96615.2
2022-11-26T05:50:56.143Z,96615.4
2022-11-26T05:51:58.616Z,96616.6
2022-11-26T05:53:01.116Z,96615.7
2022-11-26T05:54:03.587Z,96613.5
2022-11-26T05:55:06.068Z,96615
2022-11-26T05:56:08.317Z,96614.8
2022-11-26T05:57:10.551Z,96616
2022-11-26T05:58:13.017Z,96617.9
2022-11-26T05:59:15.248Z,96615.3
2022-11-26T06:00:17.717Z,96619.2
2022-11-26T06:01:19.956Z,96621.4
2022-11-26T06:02:23.136Z,96614
2022-11-26T06:03:26.366Z,96615.3
2022-11-26T06:04:28.707Z,96616.6
2022-11-26T06:05:30.913Z,96619.2
2022-11-26T06:06:33.109Z,96619.8
2022-11-26T06:07:36.241Z,96619.8
2022-11-26T06:08:41.473Z,96621.3
2022-11-26T06:09:43.671Z,96619.9
2022-11-26T06:10:45.870Z,96622.4
2022-11-26T06:11:48.127Z,96623.2
2022-11-26T06:12:50.607Z,96625.4
2022-11-26T06:13:53.089Z,96626.5
2022-11-26T06:14:55.587Z,96628.5
2022-11-26T06:15:58.081Z,96626.8
2022-11-26T06:17:01.086Z,96629.2
2022-11-26T06:18:03.655Z,96632.2
2022-11-26T06:19:05.854Z,96635.6
2022-11-26T06:20:08.331Z,96634.2
2022-11-26T06:21:10.793Z,96634.4
2022-11-26T06:22:12.737Z,96633.8
2022-11-26T06:23:14.952Z,96631.3
2022-11-26T06:24:17.134Z,96635.1
2022-11-26T06:25:19.038Z,96636.9
2022-11-26T06:26:21.518Z,96633.9
2022-11-26T06:27:24.050Z,96632
2022-11-26T06:28:26.549Z,96634.4
2022-11-26T06:29:29.881Z,96635.8
2022-11-26T06:30:32.410Z,96630
2022-11-26T06:31:35.474Z,96634.1
2022-11-26T06:32:37.912Z,96631.7
2022-11-26T06:33:40.112Z,96632.6
2022-11-26T06:35:47.581Z,96633
2022-11-26T06:36:50.062Z,96637.5
2022-11-26T06:37:52.252Z,96635.9
2022-11-26T06:38:54.444Z,96638.4
2022-11-26T06:39:56.910Z,96648.1
2022-11-26T06:40:58.820Z,96646.1
2022-11-26T06:42:01.284Z,96645.1
2022-11-26T06:43:03.815Z,96653
2022-11-26T06:44:06.307Z,96648.9
2022-11-26T06:45:08.805Z,96653.9
2022-11-26T06:46:11.707Z,96657.6
2022-11-26T06:47:14.276Z,96660.4
2022-11-26T06:48:16.221Z,96658.9
2022-11-26T06:49:18.426Z,96658.3
2022-11-26T06:50:20.893Z,96657.4
2022-11-26T06:51:23.079Z,96663.3
2022-11-26T06:52:25.297Z,96661.6
2022-11-26T06:53:27.229Z,96661.3
2022-11-26T06:54:29.404Z,96664.6
2022-11-26T06:55:31.887Z,96667.3
2022-11-26T06:56:33.816Z,96668.4
2022-11-26T06:57:36.004Z,96666.9
2022-11-26T06:58:38.569Z,96670.2
2022-11-26T06:59:41.098Z,96666.5
2022-11-26T07:00:43.298Z,96669.1
2022-11-26T07:01:45.571Z,96665.5
2022-11-26T07:02:48.197Z,96671.2
2022-11-26T07:03:50.910Z,96674.9
2022-11-26T07:04:53.388Z,96674.5
2022-11-26T07:05:55.874Z,96674.3
2022-11-26T07:06:58.351Z,96680.8
2022-11-26T07:08:00.841Z,96675.5
2022-11-26T07:09:03.319Z,96676.1
2022-11-26T07:10:05.805Z,96683.9
2022-11-26T07:11:08.276Z,96680.4
2022-11-26T07:12:10.472Z,96680.9
2022-11-26T07:13:12.960Z,96677.5
2022-11-26T07:14:15.226Z,96680
2022-11-26T07:15:17.728Z,96678.4
2022-11-26T07:16:20.497Z,96679.3
2022-11-26T07:17:22.997Z,96678.2
2022-11-26T07:18:25.203Z,96678.7
2022-11-26T07:19:27.707Z,96677.3
2022-11-26T07:20:30.390Z,96678.7
2022-11-26T07:21:32.578Z,96682.9
2022-11-26T07:22:34.778Z,96681.5
2022-11-26T07:23:36.709Z,96684.4
2022-11-26T07:24:40.713Z,96688.6
2022-11-26T07:25:43.053Z,96689.1
2022-11-26T07:26:45.268Z,96692
2022-11-26T07:27:47.775Z,96694.1
2022-11-26T07:28:50.350Z,96692.9
2022-11-26T07:29:52.918Z,96696.1
2022-11-26T07:30:55.602Z,96695.3
2022-11-26T07:31:58.189Z,96689.3
2022-11-26T07:33:00.870Z,96697.2
2022-11-26T07:34:03.374Z,96697.3
2022-11-26T07:35:05.580Z,96698.2
2022-11-26T07:36:07.522Z,96697.1
2022-11-26T07:37:10.001Z,96702
2022-11-26T07:38:11.911Z,96695.1
2022-11-26T07:39:13.821Z,96703.4
2022-11-26T07:40:16.045Z,96701.3
2022-11-26T07:41:18.254Z,96700
2022-11-26T07:42:20.806Z,96705
2022-11-26T07:43:23.051Z,96702.6
2022-11-26T07:44:25.527Z,96704.6
2022-11-26T07:45:28.038Z,96703.7
2022-11-26T07:46:30.348Z,96706.5
2022-11-26T07:47:32.679Z,96709.3
2022-11-26T07:48:34.931Z,96711.2
2022-11-26T07:49:37.398Z,96714.1
2022-11-26T07:50:39.918Z,96715.9
2022-11-26T07:51:41.848Z,96719.6
2022-11-26T07:52:44.323Z,96720.5
2022-11-26T07:53:46.255Z,96723.5
2022-11-26T07:54:48.470Z,96721.2
2022-11-26T07:55:50.938Z,96725.2
2022-11-26T07:56:52.897Z,96725.2
2022-11-26T07:57:55.366Z,96722.4
2022-11-26T07:58:57.862Z,96722.2
2022-11-26T08:00:00.059Z,96722.2
2022-11-26T08:01:02.838Z,96723
2022-11-26T08:02:05.417Z,96722.1
2022-11-26T08:03:08.024Z,96724.3
2022-11-26T08:04:09.944Z,96723.2
2022-11-26T08:05:11.884Z,96722
2022-11-26T08:06:14.378Z,96724.3
2022-11-26T08:08:21.586Z,96729.7
2022-11-26T08:09:24.077Z,96729.5
2022-11-26T08:10:26.093Z,96731.2
2022-11-26T08:11:27.906Z,96731.1
2022-11-26T08:12:30.410Z,96735.5
2022-11-26T08:13:32.907Z,96729.7
2022-11-26T08:14:35.407Z,96737.2
2022-11-26T08:15:37.993Z,96735.7
2022-11-26T08:16:40.671Z,96739.3
2022-11-26T08:17:42.810Z,96739.2
2022-11-26T08:18:45.001Z,96735.2
2022-11-26T08:19:47.242Z,96738
2022-11-26T08:20:49.459Z,96735
2022-11-26T08:21:51.700Z,96735.4
2022-11-26T08:22:54.190Z,96734.2
2022-11-26T08:23:56.681Z,96733.5
2022-11-26T08:24:58.875Z,96732.4
2022-11-26T08:27:06.070Z,96737.9
2022-11-26T08:28:08.010Z,96737.4
2022-11-26T08:29:10.208Z,96738.3
2022-11-26T08:30:12.140Z,96741.8
2022-11-26T08:31:14.901Z,96744.2
2022-11-26T08:32:17.578Z,96742.3
2022-11-26T08:33:19.791Z,96743.9
2022-11-26T08:34:22.033Z,96744.2
2022-11-26T08:36:29.495Z,96744.6
2022-11-26T08:37:31.740Z,96746.5
2022-11-26T08:38:33.936Z,96747.5
2022-11-26T08:39:36.426Z,96745.4
2022-11-26T08:40:38.351Z,96745.3
2022-11-26T08:41:40.852Z,96748.8
2022-11-26T08:42:43.053Z,96752.7
2022-11-26T08:44:50.247Z,96749.9
2022-11-26T08:45:52.646Z,96744.8
2022-11-26T08:46:54.614Z,96747.7
2022-11-26T08:47:56.876Z,96748.5
2022-11-26T08:48:59.100Z,96745.8
2022-11-26T08:50:01.598Z,96749.5
2022-11-26T08:51:03.824Z,96746.1
2022-11-26T08:52:06.066Z,96744.1
2022-11-26T08:53:08.555Z,96744.4
2022-11-26T08:54:11.137Z,96745.6
2022-11-26T08:55:13.087Z,96747.7
2022-11-26T08:56:15.312Z,96748
2022-11-26T08:57:17.832Z,96748.8
2022-11-26T08:58:20.316Z,96748.1
2022-11-26T08:59:22.798Z,96750.3
2022-11-26T09:00:25.151Z,96752.3
2022-11-26T09:01:27.395Z,96755.4
2022-11-26T09:02:30.075Z,96763.5
2022-11-26T09:03:32.643Z,96763.1
2022-11-26T09:04:35.145Z,96768.6
2022-11-26T09:05:37.357Z,96766.7
2022-11-26T09:06:39.868Z,96769.7
2022-11-26T09:08:47.348Z,96771.8
2022-11-26T09:09:49.542Z,96774.2
2022-11-26T09:10:51.454Z,96779.7
2022-11-26T09:11:53.696Z,96777.2
2022-11-26T09:12:56.188Z,96781.6
2022-11-26T09:13:58.684Z,96780.3
2022-11-26T09:15:01.504Z,96785.9
2022-11-26T09:16:04.169Z,96785.6
2022-11-26T09:17:06.651Z,96787.6
2022-11-26T09:18:09.146Z,96788.6
2022-11-26T09:19:11.669Z,96786.6
2022-11-26T09:20:14.174Z,96788.1
2022-11-26T09:21:16.650Z,96791.3
2022-11-26T09:22:18.608Z,96784.6
2022-11-26T09:23:21.085Z,96788.1
2022-11-26T09:24:23.633Z,96792.1
2022-11-26T09:25:26.109Z,96796.7
2022-11-26T09:26:28.317Z,96794
2022-11-26T09:27:30.513Z,96801.5
2022-11-26T09:28:32.727Z,96796.4
2022-11-26T09:29:35.199Z,96799.3
2022-11-26T09:30:37.694Z,96801.1
2022-11-26T09:32:45.308Z,96811.1
2022-11-26T09:33:47.923Z,96807.9
2022-11-26T09:34:50.539Z,96809.5
2022-11-26T09:35:52.497Z,96808
2022-11-26T09:36:54.982Z,96809.3
2022-11-26T09:37:57.199Z,96809.1
2022-11-26T09:38:59.129Z,96810.9
2022-11-26T09:40:01.652Z,96808.8
2022-11-26T09:41:03.861Z,96806.9
2022-11-26T09:42:06.103Z,96804.8
2022-11-26T09:43:08.594Z,96809.1
2022-11-26T09:44:10.803Z,96806.6
2022-11-26T09:45:13.278Z,96804.8
2022-11-26T09:46:16.088Z,96805.8
2022-11-26T09:47:18.385Z,96802.8
2022-11-26T09:48:20.867Z,96805.3
2022-11-26T09:49:23.350Z,96803.9
2022-11-26T09:50:25.592Z,96804.9
2022-11-26T09:51:27.549Z,96801.8
2022-11-26T09:52:30.022Z,96804.3
2022-11-26T09:53:32.255Z,96808.4
2022-11-26T09:54:34.745Z,96803.9
2022-11-26T09:55:37.056Z,96809.1
2022-11-26T09:56:39.321Z,96806
2022-11-26T09:57:41.805Z,96804.8
2022-11-26T09:58:44.304Z,96805.8
2022-11-26T09:59:46.220Z,96806.7
2022-11-26T10:00:48.939Z,96809.9
2022-11-26T10:01:51.382Z,96807.3
2022-11-26T10:02:53.395Z,96809.4
2022-11-26T10:03:55.873Z,96808.9
2022-11-26T10:04:58.085Z,96809.7
2022-11-26T10:06:00.332Z,96809.9
2022-11-26T10:07:02.840Z,96803.9
2022-11-26T10:08:04.788Z,96801.6
2022-11-26T10:09:07.022Z,96804.9
2022-11-26T10:10:09.159Z,96801.6
2022-11-26T10:11:11.408Z,96798.2
2022-11-26T10:13:21.224Z,96795.9
2022-11-26T10:14:23.736Z,96800.6
2022-11-26T10:15:25.944Z,96801
2022-11-26T10:16:28.470Z,96798.5
2022-11-26T10:17:30.725Z,96802.6
2022-11-26T10:18:32.647Z,96799.7
2022-11-26T10:19:34.872Z,96797.2
2022-11-26T10:20:37.072Z,96796.3
2022-11-26T10:22:44.307Z,96797
2022-11-26T10:23:46.923Z,96795.9
2022-11-26T10:24:48.873Z,96798.7
2022-11-26T10:25:51.363Z,96800.6
2022-11-26T10:26:53.600Z,96796.1
2022-11-26T10:27:55.523Z,96794.9
2022-11-26T10:28:57.719Z,96797.2
2022-11-26T10:29:59.636Z,96796.7
2022-11-26T10:31:01.839Z,96800.8
2022-11-26T10:32:04.576Z,96798.6
2022-11-26T10:33:06.495Z,96800.8
2022-11-26T10:34:08.703Z,96800.1
2022-11-26T10:35:11.191Z,96799.2
2022-11-26T10:36:13.134Z,96801
2022-11-26T10:37:15.617Z,96799.4
2022-11-26T10:38:17.592Z,96798
2022-11-26T10:39:19.811Z,96796
2022-11-26T10:40:22.075Z,96797.7
2022-11-26T10:41:24.575Z,96793.8
2022-11-26T10:42:26.814Z,96796.5
2022-11-26T10:43:29.010Z,96796.5
2022-11-26T10:44:31.514Z,96798.4
2022-11-26T10:45:34.133Z,96798.1
2022-11-26T10:46:37.013Z,96794.7
2022-11-26T10:47:39.630Z,96791.7
2022-11-26T10:48:42.569Z,96793.3
2022-11-26T10:49:45.055Z,96794.2
2022-11-26T10:50:49.668Z,96791.7
2022-11-26T10:51:52.148Z,96794.4
2022-11-26T10:52:54.664Z,96790.1
2022-11-26T10:53:57.252Z,96794.7
2022-11-26T10:54:59.491Z,96788.6
2022-11-26T10:56:01.997Z,96787.3
2022-11-26T10:57:03.635Z,96791.2
2022-11-26T10:58:05.586Z,96789.4
2022-11-26T10:59:08.115Z,96789.4
2022-11-26T11:00:10.323Z,96787.7
2022-11-26T11:01:12.738Z,96786.7
2022-11-26T11:02:15.459Z,96784
2022-11-26T11:03:17.746Z,96782.1
2022-11-26T11:04:19.952Z,96778.2
2022-11-26T11:05:22.166Z,96774.1
2022-11-26T11:06:24.366Z,96778.9
2022-11-26T11:07:27.296Z,96776.9
2022-11-26T11:08:29.631Z,96775.3
2022-11-26T11:09:31.906Z,96777.3
2022-11-26T11:10:34.487Z,96778
2022-11-26T11:11:36.737Z,96770.7
2022-11-26T11:12:39.240Z,96777
2022-11-26T11:13:41.762Z,96774.6
2022-11-26T11:14:46.977Z,96773.8
2022-11-26T11:15:49.775Z,96766.6
2022-11-26T11:16:52.316Z,96766.8
2022-11-26T11:17:54.377Z,96767.5
2022-11-26T11:18:56.291Z,96762.3
2022-11-26T11:19:58.946Z,96766.7
2022-11-26T11:21:00.883Z,96765.9
2022-11-26T11:22:03.364Z,96765.3
2022-11-26T11:23:06.073Z,96765
2022-11-26T11:24:10.681Z,96764.6
2022-11-26T11:25:13.218Z,96768.1
2022-11-26T11:26:15.723Z,96759.1
2022-11-26T11:27:18.343Z,96761.1
2022-11-26T11:28:20.548Z,96761.4
2022-11-26T11:29:23.129Z,96760.4
2022-11-26T11:30:25.721Z,96759.9
2022-11-26T11:31:28.407Z,96760.9
2022-11-26T11:32:30.666Z,96759.8
2022-11-26T11:33:32.598Z,96757
2022-11-26T11:34:35.069Z,96755.9
2022-11-26T11:35:37.025Z,96755.5
2022-11-26T11:36:39.500Z,96755.7
2022-11-26T11:37:41.998Z,96758.5
2022-11-26T11:38:43.920Z,96757.7
2022-11-26T11:39:46.413Z,96760.6
2022-11-26T11:40:48.707Z,96756
2022-11-26T11:41:51.249Z,96756.2
2022-11-26T11:42:53.736Z,96758.1
2022-11-26T11:43:55.960Z,96760.8
2022-11-26T11:44:58.468Z,96760.6
2022-11-26T11:46:01.158Z,96762.2
2022-11-26T11:47:03.736Z,96766.7
2022-11-26T11:48:05.954Z,96763.4
2022-11-26T11:49:08.434Z,96765.8
2022-11-26T11:50:10.921Z,96767.8
2022-11-26T11:51:12.899Z,96767.1
2022-11-26T11:52:15.124Z,96765.1
2022-11-26T11:53:17.312Z,96766.6
2022-11-26T11:54:19.813Z,96767.4
2022-11-26T11:55:22.007Z,96760.9
2022-11-26T11:56:23.984Z,96762.5
2022-11-26T11:57:26.481Z,96762.5
2022-11-26T11:58:28.735Z,96763.2
2022-11-26T11:59:30.952Z,96765.8
2022-11-26T12:00:33.457Z,96760.4
2022-11-26T12:01:36.243Z,96761.6
2022-11-26T12:02:38.973Z,96758.3
2022-11-26T12:03:41.177Z,96756.3
2022-11-26T12:04:44.222Z,96756.6
2022-11-26T12:05:46.811Z,96756.8
2022-11-26T12:06:49.024Z,96756.1
2022-11-26T12:07:50.857Z,96757.2
2022-11-26T12:08:53.230Z,96757.2
2022-11-26T12:09:55.448Z,96758.7
2022-11-26T12:10:57.937Z,96755
2022-11-26T12:12:00.495Z,96756.8
2022-11-26T12:13:02.993Z,96756.1
2022-11-26T12:14:05.231Z,96758.8
2022-11-26T12:15:07.137Z,96759.8
2022-11-26T12:16:09.907Z,96762.6
2022-11-26T12:17:11.899Z,96767.6
2022-11-26T12:18:14.122Z,96771.1
2022-11-26T12:19:16.063Z,96767.8
2022-11-26T12:20:18.626Z,96767.6
2022-11-26T12:21:21.160Z,96769
2022-11-26T12:22:23.411Z,96768.9
2022-11-26T12:23:26.460Z,96765.2
2022-11-26T12:24:28.939Z,96762.9
2022-11-26T12:26:36.128Z,96767.3
2022-11-26T12:27:38.706Z,96769.7
2022-11-26T12:28:41.200Z,96768.5
2022-11-26T12:29:43.171Z,96771.4
2022-11-26T12:30:45.683Z,96771.9
2022-11-26T12:31:48.238Z,96770.9
2022-11-26T12:32:50.566Z,96772.5
2022-11-26T12:33:52.787Z,96778.5
2022-11-26T12:34:54.717Z,96773.6
2022-11-26T12:35:57.215Z,96777.7
2022-11-26T12:36:58.867Z,96778.5
2022-11-26T12:38:01.069Z,96779.1
2022-11-26T12:39:03.275Z,96780
2022-11-26T12:40:05.775Z,96774.4
2022-11-26T12:41:07.707Z,96776
2022-11-26T12:42:09.633Z,96775.5
2022-11-26T12:43:12.174Z,96775.3
2022-11-26T12:44:14.689Z,96774.3
2022-11-26T12:45:19.107Z,96773.6
2022-11-26T12:46:21.879Z,96771.7
2022-11-26T12:47:24.260Z,96768.8
2022-11-26T12:48:26.473Z,96773.8
2022-11-26T12:49:28.411Z,96772.9
2022-11-26T12:50:33.682Z,96770.5